createdAt,value
2018-06-29T00:00:43.539Z,21.56
2018-06-29T00:01:43.500Z,21.54
2018-06-29T00:02:43.412Z,21.49
2018-06-29T00:03:43.533Z,21.44
2018-06-29T00:04:43.412Z,21.39
2018-06-29T00:05:43.574Z,21.3
2018-06-29T00:06:43.475Z,21.24
2018-06-29T00:07:43.514Z,21.3
2018-06-29T00:08:43.622Z,21.3
2018-06-29T00:09:43.780Z,21.24
2018-06-29T00:10:43.438Z,21.24
2018-06-29T00:11:43.915Z,21.29
2018-06-29T00:12:43.458Z,21.3
2018-06-29T00:13:43.465Z,21.29
2018-06-29T00:14:43.538Z,21.32
2018-06-29T00:15:43.444Z,21.33
2018-06-29T00:16:43.484Z,21.33
2018-06-29T00:17:43.459Z,21.32
2018-06-29T00:18:43.476Z,21.32
2018-06-29T00:19:43.668Z,21.33
2018-06-29T00:20:43.584Z,21.32
2018-06-29T00:21:43.482Z,21.32
2018-06-29T00:22:43.458Z,21.34
2018-06-29T00:23:43.496Z,21.3
2018-06-29T00:24:43.515Z,21.32
2018-06-29T00:25:43.449Z,21.3
2018-06-29T00:26:43.626Z,21.23
2018-06-29T00:27:43.516Z,21.17
2018-06-29T00:28:43.495Z,21.2
2018-06-29T00:29:44.676Z,21.17
2018-06-29T00:30:43.474Z,21.1
2018-06-29T00:31:43.483Z,21.02
2018-06-29T00:32:43.582Z,20.99
2018-06-29T00:33:43.557Z,20.99
2018-06-29T00:34:43.461Z,20.91
2018-06-29T00:35:43.692Z,20.85
2018-06-29T00:36:43.626Z,20.89
2018-06-29T00:37:43.450Z,20.88
2018-06-29T00:38:43.602Z,20.88
2018-06-29T00:39:43.537Z,20.84
2018-06-29T00:40:43.480Z,20.84
2018-06-29T00:41:43.630Z,20.87
2018-06-29T00:42:43.491Z,20.89
2018-06-29T00:43:43.463Z,20.94
2018-06-29T00:44:44.599Z,20.91
2018-06-29T00:45:43.601Z,20.88
2018-06-29T00:46:43.511Z,20.89
2018-06-29T00:47:43.569Z,20.91
2018-06-29T00:48:43.525Z,20.92
2018-06-29T00:49:43.688Z,20.95
2018-06-29T00:50:43.579Z,20.95
2018-06-29T00:51:43.479Z,20.99
2018-06-29T00:52:43.457Z,20.98
2018-06-29T00:53:43.614Z,21.01
2018-06-29T00:54:43.760Z,21.01
2018-06-29T00:55:43.466Z,20.99
2018-06-29T00:56:44.654Z,21.01
2018-06-29T00:57:43.489Z,21.03
2018-06-29T00:58:43.495Z,21.07
2018-06-29T00:59:43.568Z,21.09
2018-06-29T01:00:43.589Z,21.09
2018-06-29T01:01:43.487Z,21.13
2018-06-29T01:02:43.527Z,21.12
2018-06-29T01:03:43.504Z,21.1
2018-06-29T01:04:43.604Z,21.13
2018-06-29T01:05:43.850Z,21.12
2018-06-29T01:06:43.493Z,21.13
2018-06-29T01:07:43.530Z,21.13
2018-06-29T01:08:43.611Z,21.12
2018-06-29T01:09:43.512Z,21.07
2018-06-29T01:10:43.473Z,21.05
2018-06-29T01:11:43.503Z,21.02
2018-06-29T01:12:43.733Z,21.01
2018-06-29T01:13:43.496Z,20.91
2018-06-29T01:14:43.509Z,20.87
2018-06-29T01:15:43.636Z,20.91
2018-06-29T01:16:43.472Z,20.94
2018-06-29T01:17:43.504Z,20.98
2018-06-29T01:18:43.648Z,20.95
2018-06-29T01:19:43.489Z,20.96
2018-06-29T01:20:43.495Z,20.96
2018-06-29T01:21:43.508Z,20.98
2018-06-29T01:22:43.500Z,20.99
2018-06-29T01:23:43.496Z,20.99
2018-06-29T01:24:43.479Z,21.01
2018-06-29T01:25:43.557Z,20.99
2018-06-29T01:26:43.488Z,20.99
2018-06-29T01:27:43.481Z,21.02
2018-06-29T01:28:43.733Z,20.99
2018-06-29T01:29:43.501Z,21.02
2018-06-29T01:30:43.498Z,20.98
2018-06-29T01:31:43.531Z,20.98
2018-06-29T01:32:43.523Z,20.96
2018-06-29T01:33:43.511Z,20.96
2018-06-29T01:34:43.509Z,20.99
2018-06-29T01:35:43.520Z,20.96
2018-06-29T01:36:43.549Z,20.99
2018-06-29T01:37:43.511Z,20.99
2018-06-29T01:38:43.532Z,20.96
2018-06-29T01:39:43.555Z,20.89
2018-06-29T01:40:43.532Z,20.74
2018-06-29T01:41:43.537Z,20.7
2018-06-29T01:42:43.543Z,20.7
2018-06-29T01:43:43.607Z,20.72
2018-06-29T01:44:43.569Z,20.75
2018-06-29T01:45:43.643Z,20.75
2018-06-29T01:46:43.778Z,20.77
2018-06-29T01:47:43.593Z,20.78
2018-06-29T01:48:43.591Z,20.78
2018-06-29T01:49:43.620Z,20.79
2018-06-29T01:50:43.906Z,20.79
2018-06-29T01:51:43.648Z,20.71
2018-06-29T01:52:43.883Z,20.62
2018-06-29T01:53:43.575Z,20.61
2018-06-29T01:54:43.584Z,20.64
2018-06-29T01:55:43.580Z,20.64
2018-06-29T01:56:43.572Z,20.64
2018-06-29T01:57:43.959Z,20.6
2018-06-29T01:58:43.642Z,20.62
2018-06-29T01:59:43.589Z,20.61
2018-06-29T02:00:43.582Z,20.64
2018-06-29T02:01:43.627Z,20.65
2018-06-29T02:02:43.576Z,20.65
2018-06-29T02:03:43.575Z,20.65
2018-06-29T02:04:43.572Z,20.67
2018-06-29T02:05:43.580Z,20.6
2018-06-29T02:06:43.594Z,20.65
2018-06-29T02:07:43.576Z,20.64
2018-06-29T02:08:43.566Z,20.7
2018-06-29T02:09:43.647Z,20.72
2018-06-29T02:10:43.621Z,20.72
2018-06-29T02:11:43.703Z,20.72
2018-06-29T02:12:43.577Z,20.75
2018-06-29T02:13:43.608Z,20.74
2018-06-29T02:14:43.615Z,20.77
2018-06-29T02:15:43.588Z,20.78
2018-06-29T02:16:43.625Z,20.79
2018-06-29T02:17:43.614Z,20.79
2018-06-29T02:18:43.681Z,20.79
2018-06-29T02:19:43.581Z,20.79
2018-06-29T02:20:43.703Z,20.82
2018-06-29T02:21:43.604Z,20.82
2018-06-29T02:22:43.651Z,20.82
2018-06-29T02:23:43.613Z,20.84
2018-06-29T02:24:43.662Z,20.84
2018-06-29T02:25:43.733Z,20.85
2018-06-29T02:26:43.620Z,20.87
2018-06-29T02:27:43.992Z,20.85
2018-06-29T02:28:43.655Z,20.87
2018-06-29T02:29:43.625Z,20.87
2018-06-29T02:30:43.829Z,20.88
2018-06-29T02:31:43.651Z,20.88
2018-06-29T02:32:43.662Z,20.87
2018-06-29T02:33:43.513Z,20.88
2018-06-29T02:34:43.567Z,20.89
2018-06-29T02:35:43.589Z,20.88
2018-06-29T02:36:43.532Z,20.89
2018-06-29T02:37:43.695Z,20.89
2018-06-29T02:38:43.676Z,20.92
2018-06-29T02:39:43.591Z,20.94
2018-06-29T02:40:43.532Z,20.94
2018-06-29T02:41:43.552Z,20.92
2018-06-29T02:42:43.551Z,20.94
2018-06-29T02:43:43.591Z,20.96
2018-06-29T02:44:43.581Z,20.95
2018-06-29T02:45:43.581Z,20.98
2018-06-29T02:46:43.549Z,20.96
2018-06-29T02:47:43.572Z,20.96
2018-06-29T02:48:43.572Z,20.98
2018-06-29T02:49:43.795Z,20.98
2018-06-29T02:50:43.591Z,20.95
2018-06-29T02:51:43.804Z,20.92
2018-06-29T02:52:43.607Z,20.96
2018-06-29T02:53:43.628Z,20.94
2018-06-29T02:54:43.619Z,20.98
2018-06-29T02:55:43.573Z,20.96
2018-06-29T02:56:43.585Z,20.95
2018-06-29T02:57:43.575Z,20.94
2018-06-29T02:58:43.644Z,20.94
2018-06-29T02:59:43.602Z,20.95
2018-06-29T03:00:43.640Z,20.94
2018-06-29T03:01:43.590Z,20.96
2018-06-29T03:02:43.629Z,20.96
2018-06-29T03:03:43.590Z,20.95
2018-06-29T03:04:43.604Z,20.95
2018-06-29T03:05:43.580Z,20.95
2018-06-29T03:06:43.546Z,20.94
2018-06-29T03:07:43.662Z,20.95
2018-06-29T03:08:43.559Z,20.94
2018-06-29T03:09:43.966Z,20.94
2018-06-29T03:10:43.543Z,20.88
2018-06-29T03:11:43.735Z,20.89
2018-06-29T03:12:43.590Z,20.88
2018-06-29T03:13:43.563Z,20.87
2018-06-29T03:14:43.594Z,20.82
2018-06-29T03:15:43.610Z,20.85
2018-06-29T03:16:43.618Z,20.84
2018-06-29T03:17:43.957Z,20.84
2018-06-29T03:18:43.598Z,20.82
2018-06-29T03:19:43.561Z,20.82
2018-06-29T03:20:43.577Z,20.78
2018-06-29T03:21:43.621Z,20.79
2018-06-29T03:22:43.557Z,20.77
2018-06-29T03:23:43.640Z,20.7
2018-06-29T03:24:43.559Z,20.64
2018-06-29T03:25:43.554Z,20.6
2018-06-29T03:26:43.864Z,20.57
2018-06-29T03:27:43.587Z,20.54
2018-06-29T03:28:43.625Z,20.54
2018-06-29T03:29:43.635Z,20.54
2018-06-29T03:30:43.643Z,20.55
2018-06-29T03:31:43.632Z,20.55
2018-06-29T03:32:43.622Z,20.52
2018-06-29T03:33:43.664Z,20.55
2018-06-29T03:34:43.656Z,20.58
2018-06-29T03:35:43.614Z,20.6
2018-06-29T03:36:43.679Z,20.62
2018-06-29T03:37:43.576Z,20.62
2018-06-29T03:38:43.601Z,20.62
2018-06-29T03:39:43.682Z,20.65
2018-06-29T03:40:43.881Z,20.62
2018-06-29T03:41:43.605Z,20.62
2018-06-29T03:42:43.568Z,20.62
2018-06-29T03:43:43.601Z,20.62
2018-06-29T03:44:43.602Z,20.65
2018-06-29T03:45:43.591Z,20.65
2018-06-29T03:46:43.583Z,20.65
2018-06-29T03:47:43.619Z,20.65
2018-06-29T03:48:43.567Z,20.64
2018-06-29T03:49:43.611Z,20.62
2018-06-29T03:50:43.613Z,20.61
2018-06-29T03:51:43.594Z,20.62
2018-06-29T03:52:43.594Z,20.64
2018-06-29T03:53:43.592Z,20.62
2018-06-29T03:54:43.610Z,20.6
2018-06-29T03:55:43.583Z,20.6
2018-06-29T03:56:43.625Z,20.62
2018-06-29T03:57:43.638Z,20.6
2018-06-29T03:58:43.577Z,20.61
2018-06-29T03:59:43.631Z,20.62
2018-06-29T04:00:43.655Z,20.62
2018-06-29T04:01:43.656Z,20.64
2018-06-29T04:02:43.668Z,20.64
2018-06-29T04:03:43.661Z,20.62
2018-06-29T04:04:43.874Z,20.67
2018-06-29T04:05:43.705Z,20.67
2018-06-29T04:06:44.215Z,20.67
2018-06-29T04:07:43.660Z,20.65
2018-06-29T04:08:43.908Z,20.67
2018-06-29T04:09:43.615Z,20.65
2018-06-29T04:10:43.617Z,20.67
2018-06-29T04:11:43.797Z,20.65
2018-06-29T04:12:43.600Z,20.68
2018-06-29T04:13:43.629Z,20.67
2018-06-29T04:14:43.605Z,20.67
2018-06-29T04:15:43.666Z,20.68
2018-06-29T04:16:43.636Z,20.7
2018-06-29T04:17:43.678Z,20.68
2018-06-29T04:18:43.719Z,20.67
2018-06-29T04:19:43.615Z,20.68
2018-06-29T04:20:43.602Z,20.67
2018-06-29T04:21:43.636Z,20.65
2018-06-29T04:22:43.705Z,20.65
2018-06-29T04:23:43.624Z,20.64
2018-06-29T04:24:43.778Z,20.64
2018-06-29T04:25:43.659Z,20.64
2018-06-29T04:26:43.616Z,20.61
2018-06-29T04:27:43.839Z,20.6
2018-06-29T04:28:43.705Z,20.62
2018-06-29T04:29:43.799Z,20.62
2018-06-29T04:30:43.628Z,20.6
2018-06-29T04:31:43.663Z,20.64
2018-06-29T04:32:43.905Z,20.61
2018-06-29T04:33:43.613Z,20.64
2018-06-29T04:34:43.608Z,20.64
2018-06-29T04:35:43.651Z,20.62
2018-06-29T04:36:43.650Z,20.62
2018-06-29T04:37:43.645Z,20.65
2018-06-29T04:38:43.650Z,20.65
2018-06-29T04:39:43.790Z,20.62
2018-06-29T04:40:43.651Z,20.61
2018-06-29T04:41:43.668Z,20.61
2018-06-29T04:42:43.644Z,20.6
2018-06-29T04:43:43.631Z,20.61
2018-06-29T04:44:44.287Z,20.6
2018-06-29T04:45:43.684Z,20.62
2018-06-29T04:46:43.758Z,20.61
2018-06-29T04:47:44.207Z,20.58
2018-06-29T04:48:43.753Z,20.57
2018-06-29T04:49:43.670Z,20.52
2018-06-29T04:50:43.662Z,20.54
2018-06-29T04:51:43.766Z,20.52
2018-06-29T04:52:43.717Z,20.47
2018-06-29T04:53:43.685Z,20.43
2018-06-29T04:54:43.692Z,20.46
2018-06-29T04:55:43.698Z,20.48
2018-06-29T04:56:43.704Z,20.48
2018-06-29T04:57:43.711Z,20.48
2018-06-29T04:58:43.886Z,20.51
2018-06-29T04:59:43.697Z,20.55
2018-06-29T05:00:43.724Z,20.55
2018-06-29T05:01:43.750Z,20.55
2018-06-29T05:02:43.724Z,20.51
2018-06-29T05:03:43.679Z,20.55
2018-06-29T05:04:43.670Z,20.54
2018-06-29T05:05:43.681Z,20.57
2018-06-29T05:06:43.735Z,20.55
2018-06-29T05:07:43.741Z,20.55
2018-06-29T05:08:43.709Z,20.55
2018-06-29T05:09:43.833Z,20.55
2018-06-29T05:10:43.745Z,20.57
2018-06-29T05:11:43.750Z,20.52
2018-06-29T05:12:43.716Z,20.54
2018-06-29T05:13:43.729Z,20.52
2018-06-29T05:14:43.689Z,20.54
2018-06-29T05:15:43.706Z,20.52
2018-06-29T05:16:43.735Z,20.48
2018-06-29T05:17:43.726Z,20.46
2018-06-29T05:18:43.728Z,20.47
2018-06-29T05:19:43.714Z,20.46
2018-06-29T05:20:43.718Z,20.46
2018-06-29T05:21:43.732Z,20.47
2018-06-29T05:22:43.741Z,20.4
2018-06-29T05:23:43.725Z,20.43
2018-06-29T05:24:43.747Z,20.43
2018-06-29T05:25:43.800Z,20.41
2018-06-29T05:26:43.748Z,20.44
2018-06-29T05:27:43.797Z,20.46
2018-06-29T05:28:43.957Z,20.47
2018-06-29T05:29:43.722Z,20.48
2018-06-29T05:30:43.817Z,20.48
2018-06-29T05:31:43.744Z,20.55
2018-06-29T05:32:43.749Z,20.52
2018-06-29T05:33:43.712Z,20.54
2018-06-29T05:34:43.841Z,20.55
2018-06-29T05:35:43.716Z,20.58
2018-06-29T05:36:43.781Z,20.6
2018-06-29T05:37:43.789Z,20.58
2018-06-29T05:38:43.736Z,20.58
2018-06-29T05:39:43.729Z,20.61
2018-06-29T05:40:43.798Z,20.6
2018-06-29T05:41:44.090Z,20.6
2018-06-29T05:42:43.958Z,20.62
2018-06-29T05:43:43.669Z,20.64
2018-06-29T05:44:43.653Z,20.64
2018-06-29T05:45:43.658Z,20.62
2018-06-29T05:46:43.682Z,20.67
2018-06-29T05:47:43.768Z,20.71
2018-06-29T05:48:43.688Z,20.7
2018-06-29T05:49:43.810Z,20.71
2018-06-29T05:50:43.874Z,20.72
2018-06-29T05:51:43.862Z,20.72
2018-06-29T05:52:43.681Z,20.74
2018-06-29T05:53:43.663Z,20.74
2018-06-29T05:54:43.695Z,20.75
2018-06-29T05:55:43.685Z,20.79
2018-06-29T05:56:43.695Z,20.78
2018-06-29T05:57:43.652Z,20.79
2018-06-29T05:58:43.665Z,20.81
2018-06-29T05:59:43.656Z,20.82
2018-06-29T06:00:43.672Z,20.84
2018-06-29T06:01:43.677Z,20.82
2018-06-29T06:02:43.701Z,20.82
2018-06-29T06:03:43.664Z,20.82
2018-06-29T06:04:44.032Z,20.84
2018-06-29T06:05:43.749Z,20.88
2018-06-29T06:06:43.669Z,20.87
2018-06-29T06:07:43.692Z,20.87
2018-06-29T06:08:43.688Z,20.89
2018-06-29T06:09:43.660Z,20.89
2018-06-29T06:10:43.676Z,20.91
2018-06-29T06:11:43.691Z,20.91
2018-06-29T06:12:43.688Z,20.94
2018-06-29T06:13:43.659Z,20.94
2018-06-29T06:14:43.670Z,20.94
2018-06-29T06:15:43.743Z,20.95
2018-06-29T06:16:43.713Z,20.96
2018-06-29T06:17:43.717Z,20.98
2018-06-29T06:18:43.694Z,20.98
2018-06-29T06:19:43.719Z,20.98
2018-06-29T06:20:43.708Z,20.98
2018-06-29T06:21:43.857Z,20.98
2018-06-29T06:22:43.714Z,21.03
2018-06-29T06:23:43.676Z,21.01
2018-06-29T06:24:43.683Z,20.99
2018-06-29T06:25:43.841Z,21.03
2018-06-29T06:26:43.693Z,21.03
2018-06-29T06:27:43.751Z,21.03
2018-06-29T06:28:43.695Z,21.06
2018-06-29T06:29:43.710Z,21.05
2018-06-29T06:30:43.832Z,21.02
2018-06-29T06:31:43.682Z,21.03
2018-06-29T06:32:43.682Z,21.05
2018-06-29T06:33:43.849Z,21.06
2018-06-29T06:34:43.704Z,21.06
2018-06-29T06:35:43.763Z,21.06
2018-06-29T06:36:43.696Z,21.03
2018-06-29T06:37:43.717Z,21.05
2018-06-29T06:38:43.757Z,21.05
2018-06-29T06:39:43.710Z,21.06
2018-06-29T06:40:43.731Z,21.06
2018-06-29T06:41:44.264Z,21.07
2018-06-29T06:42:43.727Z,21.06
2018-06-29T06:43:43.799Z,21.06
2018-06-29T06:44:43.771Z,21.05
2018-06-29T06:45:43.685Z,21.05
2018-06-29T06:46:43.731Z,21.02
2018-06-29T06:47:43.769Z,20.98
2018-06-29T06:48:43.732Z,20.99
2018-06-29T06:49:43.725Z,21.01
2018-06-29T06:50:43.754Z,21.02
2018-06-29T06:51:43.693Z,20.99
2018-06-29T06:52:43.742Z,21.02
2018-06-29T06:53:44.278Z,21.01
2018-06-29T06:54:43.741Z,21.02
2018-06-29T06:55:43.761Z,21.05
2018-06-29T06:56:43.703Z,21.03
2018-06-29T06:57:43.742Z,20.82
2018-06-29T06:58:43.742Z,20.82
2018-06-29T06:59:43.748Z,20.89
2018-06-29T07:00:43.825Z,20.91
2018-06-29T07:01:43.789Z,20.92
2018-06-29T07:02:43.705Z,20.94
2018-06-29T07:03:43.740Z,20.95
2018-06-29T07:04:43.789Z,20.94
2018-06-29T07:05:43.904Z,20.96
2018-06-29T07:06:43.768Z,21.02
2018-06-29T07:07:43.945Z,21.01
2018-06-29T07:08:43.768Z,20.99
2018-06-29T07:09:43.759Z,21.01
2018-06-29T07:10:43.735Z,21.02
2018-06-29T07:11:43.746Z,20.89
2018-06-29T07:12:43.923Z,20.72
2018-06-29T07:13:43.748Z,20.67
2018-06-29T07:14:43.783Z,20.64
2018-06-29T07:15:43.769Z,20.58
2018-06-29T07:16:43.760Z,20.65
2018-06-29T07:17:43.740Z,20.72
2018-06-29T07:18:43.749Z,20.79
2018-06-29T07:19:43.725Z,20.84
2018-06-29T07:20:43.737Z,20.87
2018-06-29T07:21:47.438Z,20.91
2018-06-29T07:22:43.747Z,20.95
2018-06-29T07:23:43.714Z,20.98
2018-06-29T07:24:43.718Z,21.01
2018-06-29T07:25:43.756Z,21.02
2018-06-29T07:26:43.739Z,21.05
2018-06-29T07:27:43.857Z,21.05
2018-06-29T07:28:43.812Z,21.03
2018-06-29T07:29:44.257Z,21.06
2018-06-29T07:30:43.727Z,21.07
2018-06-29T07:31:43.764Z,21.05
2018-06-29T07:32:44.065Z,21.06
2018-06-29T07:33:43.751Z,21.07
2018-06-29T07:34:43.748Z,21.07
2018-06-29T07:35:43.730Z,21.09
2018-06-29T07:36:43.750Z,21.1
2018-06-29T07:37:44.018Z,21.1
2018-06-29T07:38:43.855Z,21.12
2018-06-29T07:39:43.755Z,21.09
2018-06-29T07:40:43.801Z,21.03
2018-06-29T07:41:43.751Z,21.01
2018-06-29T07:42:44.239Z,21.03
2018-06-29T07:43:43.825Z,21.06
2018-06-29T07:44:43.767Z,21.07
2018-06-29T07:45:43.787Z,21.1
2018-06-29T07:46:44.214Z,21.12
2018-06-29T07:47:43.846Z,21.1
2018-06-29T07:48:43.868Z,21.16
2018-06-29T07:49:43.814Z,21.15
2018-06-29T07:50:43.884Z,21.2
2018-06-29T07:51:43.834Z,21.29
2018-06-29T07:52:43.938Z,21.26
2018-06-29T07:53:43.917Z,21.33
2018-06-29T07:54:44.266Z,21.37
2018-06-29T07:55:43.884Z,21.43
2018-06-29T07:56:44.049Z,21.47
2018-06-29T07:57:44.017Z,21.5
2018-06-29T07:58:44.800Z,21.53
2018-06-29T07:59:43.955Z,21.56
2018-06-29T08:00:43.889Z,21.62
2018-06-29T08:01:43.907Z,21.64
2018-06-29T08:02:44.781Z,21.53
2018-06-29T08:03:44.041Z,21.47
2018-06-29T08:04:43.991Z,21.56
2018-06-29T08:05:43.962Z,21.61
2018-06-29T08:06:44.211Z,21.6
2018-06-29T08:07:43.959Z,21.65
2018-06-29T08:08:44.007Z,21.62
2018-06-29T08:09:43.907Z,21.64
2018-06-29T08:10:44.509Z,21.62
2018-06-29T08:11:43.950Z,21.67
2018-06-29T08:12:43.945Z,21.69
2018-06-29T08:13:43.983Z,21.79
2018-06-29T08:14:43.929Z,21.85
2018-06-29T08:15:44.299Z,21.85
2018-06-29T08:16:44.000Z,21.89
2018-06-29T08:17:43.909Z,21.84
2018-06-29T08:18:43.888Z,21.84
2018-06-29T08:19:43.901Z,21.85
2018-06-29T08:20:43.919Z,21.91
2018-06-29T08:21:43.952Z,21.91
2018-06-29T08:22:43.914Z,21.81
2018-06-29T08:23:43.927Z,21.88
2018-06-29T08:24:43.891Z,21.88
2018-06-29T08:25:43.941Z,21.89
2018-06-29T08:26:43.907Z,21.91
2018-06-29T08:27:43.917Z,21.96
2018-06-29T08:28:43.912Z,21.96
2018-06-29T08:29:43.898Z,21.98
2018-06-29T08:30:43.949Z,22.05
2018-06-29T08:31:43.952Z,22.11
2018-06-29T08:32:43.924Z,22.11
2018-06-29T08:33:43.931Z,22.22
2018-06-29T08:34:43.945Z,22.19
2018-06-29T08:35:43.973Z,22.22
2018-06-29T08:36:43.910Z,22.19
2018-06-29T08:37:43.927Z,22.22
2018-06-29T08:38:44.396Z,22.24
2018-06-29T08:39:44.500Z,22.33
2018-06-29T08:40:43.884Z,22.19
2018-06-29T08:41:43.982Z,22.19
2018-06-29T08:42:43.927Z,22.15
2018-06-29T08:43:43.993Z,22.2
2018-06-29T08:44:43.981Z,22.24
2018-06-29T08:45:43.946Z,22.3
2018-06-29T08:46:44.165Z,22.37
2018-06-29T08:47:43.959Z,22.37
2018-06-29T08:48:43.777Z,22.33
2018-06-29T08:49:44.343Z,22.41
2018-06-29T08:50:43.788Z,22.37
2018-06-29T08:51:44.144Z,22.43
2018-06-29T08:52:43.798Z,22.53
2018-06-29T08:53:43.803Z,22.57
2018-06-29T08:54:43.806Z,22.65
2018-06-29T08:55:44.037Z,22.7
2018-06-29T08:56:44.036Z,22.74
2018-06-29T08:57:43.784Z,22.79
2018-06-29T08:58:44.106Z,22.89
2018-06-29T08:59:43.975Z,22.92
2018-06-29T09:00:44.094Z,23.01
2018-06-29T09:01:43.777Z,23.03
2018-06-29T09:02:44.243Z,23.03
2018-06-29T09:03:43.778Z,23.09
2018-06-29T09:04:44.050Z,23.13
2018-06-29T09:05:43.793Z,23.22
2018-06-29T09:06:43.843Z,23.15
2018-06-29T09:07:43.829Z,23.09
2018-06-29T09:08:44.244Z,23.02
2018-06-29T09:09:44.080Z,22.99
2018-06-29T09:10:43.824Z,22.98
2018-06-29T09:11:43.857Z,23.01
2018-06-29T09:12:43.859Z,23.02
2018-06-29T09:13:43.857Z,23.07
2018-06-29T09:14:47.624Z,23.12
2018-06-29T09:15:44.186Z,23.16
2018-06-29T09:16:44.086Z,23.25
2018-06-29T09:17:44.276Z,23.2
2018-06-29T09:18:43.799Z,23.22
2018-06-29T09:19:43.814Z,23.22
2018-06-29T09:20:43.800Z,23.27
2018-06-29T09:21:44.198Z,23.29
2018-06-29T09:22:44.280Z,23.33
2018-06-29T09:23:43.911Z,23.34
2018-06-29T09:24:44.157Z,23.39
2018-06-29T09:25:43.929Z,23.46
2018-06-29T09:26:43.925Z,23.46
2018-06-29T09:27:43.933Z,23.44
2018-06-29T09:28:43.977Z,23.47
2018-06-29T09:29:44.191Z,23.5
2018-06-29T09:30:48.705Z,23.47
2018-06-29T09:31:44.406Z,23.44
2018-06-29T09:32:43.887Z,23.5
2018-06-29T09:33:43.833Z,23.56
2018-06-29T09:34:44.015Z,23.61
2018-06-29T09:35:43.884Z,23.68
2018-06-29T09:36:43.890Z,23.71
2018-06-29T09:37:43.830Z,23.74
2018-06-29T09:38:43.904Z,23.75
2018-06-29T09:39:43.948Z,23.84
2018-06-29T09:40:44.035Z,23.73
2018-06-29T09:41:44.083Z,23.73
2018-06-29T09:42:43.936Z,23.74
2018-06-29T09:43:43.943Z,23.71
2018-06-29T09:44:43.877Z,23.88
2018-06-29T09:45:43.989Z,23.95
2018-06-29T09:46:43.854Z,24.01
2018-06-29T09:47:44.179Z,24.06
2018-06-29T09:48:44.450Z,24.2
2018-06-29T09:49:44.104Z,24.2
2018-06-29T09:50:43.814Z,24.27
2018-06-29T09:51:44.000Z,24.43
2018-06-29T09:52:44.009Z,24.51
2018-06-29T09:53:44.011Z,24.58
2018-06-29T09:54:43.914Z,24.51
2018-06-29T09:55:44.124Z,24.51
2018-06-29T09:56:43.887Z,24.61
2018-06-29T09:57:43.856Z,24.63
2018-06-29T09:58:43.966Z,24.68
2018-06-29T09:59:44.088Z,24.75
2018-06-29T10:00:44.606Z,24.97
2018-06-29T10:01:43.849Z,24.95
2018-06-29T10:02:43.834Z,25.06
2018-06-29T10:03:44.025Z,25.22
2018-06-29T10:04:43.842Z,25.2
2018-06-29T10:05:43.868Z,25.23
2018-06-29T10:06:43.976Z,25.22
2018-06-29T10:07:43.908Z,25.22
2018-06-29T10:08:43.843Z,25.32
2018-06-29T10:09:43.949Z,25.22
2018-06-29T10:10:44.152Z,25.19
2018-06-29T10:11:43.959Z,25.19
2018-06-29T10:12:44.151Z,25.22
2018-06-29T10:13:45.179Z,25.27
2018-06-29T10:14:43.975Z,25.32
2018-06-29T10:15:43.977Z,25.36
2018-06-29T10:16:44.068Z,25.4
2018-06-29T10:17:43.854Z,25.48
2018-06-29T10:18:43.941Z,25.54
2018-06-29T10:19:44.574Z,25.61
2018-06-29T10:20:43.901Z,25.64
2018-06-29T10:21:43.887Z,25.72
2018-06-29T10:22:43.950Z,25.75
2018-06-29T10:23:44.055Z,25.75
2018-06-29T10:24:43.872Z,25.87
2018-06-29T10:25:44.011Z,25.84
2018-06-29T10:26:44.023Z,25.95
2018-06-29T10:27:44.148Z,25.95
2018-06-29T10:28:43.940Z,25.98
2018-06-29T10:29:43.960Z,25.96
2018-06-29T10:30:44.292Z,25.98
2018-06-29T10:31:43.867Z,26.03
2018-06-29T10:32:43.884Z,26.05
2018-06-29T10:33:43.845Z,26.12
2018-06-29T10:34:43.855Z,26.1
2018-06-29T10:35:43.955Z,26.12
2018-06-29T10:36:44.053Z,26.13
2018-06-29T10:37:43.915Z,26.2
2018-06-29T10:38:44.127Z,26.22
2018-06-29T10:39:48.132Z,26.23
2018-06-29T10:40:43.890Z,26.26
2018-06-29T10:41:43.915Z,26.29
2018-06-29T10:42:44.066Z,26.3
2018-06-29T10:43:43.886Z,26.3
2018-06-29T10:44:44.196Z,26.29
2018-06-29T10:45:44.094Z,26.3
2018-06-29T10:46:43.909Z,26.33
2018-06-29T10:47:43.900Z,26.37
2018-06-29T10:48:43.995Z,26.42
2018-06-29T10:49:43.894Z,26.48
2018-06-29T10:50:43.962Z,26.57
2018-06-29T10:51:43.871Z,26.64
2018-06-29T10:52:44.030Z,26.7
2018-06-29T10:53:43.877Z,26.71
2018-06-29T10:54:43.879Z,26.75
2018-06-29T10:55:43.983Z,26.72
2018-06-29T10:56:44.121Z,26.74
2018-06-29T10:57:44.051Z,26.71
2018-06-29T10:58:44.358Z,26.6
2018-06-29T10:59:43.992Z,26.62
2018-06-29T11:00:44.079Z,26.65
2018-06-29T11:01:43.899Z,26.67
2018-06-29T11:02:43.963Z,26.75
2018-06-29T11:03:43.897Z,26.81
2018-06-29T11:04:43.984Z,26.87
2018-06-29T11:05:43.996Z,26.95
2018-06-29T11:06:43.928Z,26.99
2018-06-29T11:07:43.925Z,27.06
2018-06-29T11:08:44.011Z,27.12
2018-06-29T11:09:43.932Z,27.12
2018-06-29T11:10:43.970Z,27.16
2018-06-29T11:11:43.900Z,27.24
2018-06-29T11:12:44.197Z,27.29
2018-06-29T11:13:44.071Z,27.32
2018-06-29T11:14:43.975Z,27.37
2018-06-29T11:15:44.031Z,27.41
2018-06-29T11:16:43.996Z,27.51
2018-06-29T11:17:43.932Z,27.56
2018-06-29T11:18:43.949Z,27.58
2018-06-29T11:19:44.009Z,27.58
2018-06-29T11:20:44.050Z,27.6
2018-06-29T11:21:44.123Z,27.81
2018-06-29T11:22:44.285Z,27.68
2018-06-29T11:23:43.934Z,27.68
2018-06-29T11:24:44.000Z,27.7
2018-06-29T11:25:43.971Z,27.72
2018-06-29T11:26:43.914Z,27.68
2018-06-29T11:27:44.067Z,27.6
2018-06-29T11:28:44.102Z,27.46
2018-06-29T11:29:43.981Z,27.46
2018-06-29T11:30:44.192Z,27.34
2018-06-29T11:31:43.944Z,27.15
2018-06-29T11:32:44.068Z,27.05
2018-06-29T11:33:43.985Z,27.05
2018-06-29T11:34:43.976Z,27.19
2018-06-29T11:35:44.021Z,27.16
2018-06-29T11:36:44.180Z,27.41
2018-06-29T11:37:43.976Z,27.54
2018-06-29T11:38:43.947Z,27.41
2018-06-29T11:39:44.152Z,27.34
2018-06-29T11:40:43.919Z,27.34
2018-06-29T11:41:44.095Z,27.3
2018-06-29T11:42:44.072Z,27.37
2018-06-29T11:43:44.038Z,27.57
2018-06-29T11:44:44.005Z,27.62
2018-06-29T11:45:43.918Z,27.78
2018-06-29T11:46:43.979Z,28.09
2018-06-29T11:47:49.518Z,28.01
2018-06-29T11:48:44.060Z,27.98
2018-06-29T11:49:43.945Z,27.96
2018-06-29T11:50:43.956Z,27.79
2018-06-29T11:51:43.949Z,27.71
2018-06-29T11:52:43.941Z,27.57
2018-06-29T11:53:43.935Z,27.54
2018-06-29T11:54:43.916Z,27.53
2018-06-29T11:55:44.057Z,27.49
2018-06-29T11:56:43.995Z,27.49
2018-06-29T11:57:43.927Z,27.44
2018-06-29T11:58:43.959Z,27.43
2018-06-29T11:59:43.939Z,27.44
2018-06-29T12:00:44.414Z,27.43
2018-06-29T12:01:43.946Z,27.47
2018-06-29T12:02:43.959Z,27.5
2018-06-29T12:03:43.985Z,27.57
2018-06-29T12:04:43.942Z,27.54
2018-06-29T12:05:43.980Z,27.57
2018-06-29T12:06:43.996Z,27.54
2018-06-29T12:07:44.028Z,27.56
2018-06-29T12:08:43.978Z,27.58
2018-06-29T12:09:43.980Z,27.57
2018-06-29T12:10:44.014Z,27.61
2018-06-29T12:11:44.202Z,27.65
2018-06-29T12:12:44.068Z,27.65
2018-06-29T12:13:43.973Z,27.64
2018-06-29T12:14:44.075Z,27.67
2018-06-29T12:15:44.056Z,27.68
2018-06-29T12:16:43.957Z,27.77
2018-06-29T12:17:44.036Z,27.81
2018-06-29T12:18:43.969Z,27.85
2018-06-29T12:19:44.043Z,27.91
2018-06-29T12:20:44.438Z,27.99
2018-06-29T12:21:43.961Z,28.2
2018-06-29T12:22:43.955Z,27.95
2018-06-29T12:23:43.987Z,27.96
2018-06-29T12:24:43.997Z,28.08
2018-06-29T12:25:44.089Z,28.05
2018-06-29T12:26:44.216Z,28.13
2018-06-29T12:27:44.007Z,28.09
2018-06-29T12:28:43.963Z,28.09
2018-06-29T12:29:43.986Z,28.22
2018-06-29T12:30:44.307Z,28.19
2018-06-29T12:31:43.999Z,28.22
2018-06-29T12:32:43.968Z,28.36
2018-06-29T12:33:43.965Z,28.43
2018-06-29T12:34:43.973Z,28.33
2018-06-29T12:35:43.959Z,28.4
2018-06-29T12:36:44.138Z,28.37
2018-06-29T12:37:43.976Z,28.32
2018-06-29T12:38:43.954Z,28.41
2018-06-29T12:39:44.204Z,28.52
2018-06-29T12:40:44.099Z,28.55
2018-06-29T12:41:43.992Z,28.63
2018-06-29T12:42:43.981Z,28.64
2018-06-29T12:43:43.968Z,28.64
2018-06-29T12:44:43.989Z,28.67
2018-06-29T12:45:43.956Z,28.66
2018-06-29T12:46:44.104Z,28.68
2018-06-29T12:47:44.093Z,28.68
2018-06-29T12:48:44.011Z,28.68
2018-06-29T12:49:44.047Z,28.67
2018-06-29T12:50:44.005Z,28.61
2018-06-29T12:51:44.163Z,28.57
2018-06-29T12:52:44.172Z,28.41
2018-06-29T12:53:43.975Z,28.47
2018-06-29T12:54:44.164Z,28.36